Whitfield, New York
Current Conditions -  °F | °C
As of 12:54 AM on Friday 19 Dec 2014 (Local Time) from KMGJ Reporting Station
Overcast Overcast  
Wind Chill: 29°   Ceiling: 5000
Heat Index: 35°   Visibility: 10mi
Dew Point: 25°   Wind: 7mph
Humidity: 67%   Direction: 320°NW
Pressure: 29.94"   Gusts: NA
Location:  41.8083°N, 74.2318°W
Report Text: KMGJ 190554Z AUTO 32006KT 10SM FEW028 OVC050 02/M04 A2994 RMK AO2 SLP142 T00171039 10022 20017 50000 TSNO
Loading
Personal Weather Stations






























Interactive Weather Map New forecast layout! Learn more

10-Day Weather Forecast

Advertisements
Track Severe Weather on mobile